Time;durP1;ratioP1;P1;durP2;ratioP2;P2;SDS_P1;SDS_P2;PMS_P1;PMS_P2;Temp;Humidity;BMP_temperature;BMP_pressure;BME280_temperature;BME280_humidity;BME280_pressure;Samples;Min_cycle;Max_cycle;Signal;HPM_P1;HPM_P2
2022/03/27 00:00:41;;;;;;;14.83;9.63;;;9.10;99.90;;;;;;5059172;28;20286;-80
2022/03/27 00:03:07;;;;;;;11.77;8.23;;;9.10;99.90;;;;;;5065444;28;20622;-80
2022/03/27 00:05:33;;;;;;;15.63;8.73;;;9.10;99.90;;;;;;5059510;28;20222;-81
2022/03/27 00:07:59;;;;;;;10.87;8.27;;;9.10;99.90;;;;;;5062966;28;20219;-80
2022/03/27 00:10:25;;;;;;;13.50;8.87;;;9.10;99.90;;;;;;5060378;28;20257;-82
2022/03/27 00:12:50;;;;;;;12.70;9.23;;;9.10;99.90;;;;;;5068543;28;20203;-80
2022/03/27 00:15:16;;;;;;;13.87;9.50;;;9.10;99.90;;;;;;5062309;28;20175;-79
2022/03/27 00:17:41;;;;;;;16.07;10.47;;;9.00;99.90;;;;;;5064605;28;20243;-81
2022/03/27 00:20:12;;;;;;;14.60;9.77;;;9.10;99.90;;;;;;5055003;28;20204;-80
2022/03/27 00:22:38;;;;;;;14.07;9.83;;;9.10;99.90;;;;;;5073840;28;20651;-81
2022/03/27 00:25:05;;;;;;;15.40;9.93;;;9.00;99.90;;;;;;5056661;28;20215;-81
2022/03/27 00:27:31;;;;;;;12.23;9.20;;;9.00;99.90;;;;;;5058409;28;20547;-80
2022/03/27 00:29:57;;;;;;;16.47;10.10;;;9.00;99.90;;;;;;5068504;28;20176;-79
2022/03/27 00:32:23;;;;;;;13.63;9.73;;;9.00;99.90;;;;;;5056341;28;20267;-80
2022/03/27 00:34:49;;;;;;;15.80;9.90;;;9.00;99.90;;;;;;5055591;28;20203;-80
2022/03/27 00:37:15;;;;;;;14.87;10.20;;;8.90;99.90;;;;;;5071870;28;20239;-80
2022/03/27 00:39:41;;;;;;;17.07;10.67;;;8.90;99.90;;;;;;5064126;28;20184;-81
2022/03/27 00:42:07;;;;;;;15.10;10.43;;;8.80;99.90;;;;;;5064887;28;20345;-80
2022/03/27 00:44:33;;;;;;;15.40;10.40;;;8.80;99.90;;;;;;5063963;28;20747;-79
2022/03/27 00:46:58;;;;;;;15.07;10.40;;;8.70;99.90;;;;;;5056408;28;20207;-80
2022/03/27 00:49:24;;;;;;;16.80;11.43;;;8.70;99.90;;;;;;5061798;28;20590;-80
2022/03/27 00:51:50;;;;;;;19.00;12.00;;;8.70;99.90;;;;;;5067515;28;20258;-83
2022/03/27 00:54:15;;;;;;;15.40;11.53;;;8.70;99.90;;;;;;5076545;28;20280;-80
2022/03/27 00:56:41;;;;;;;17.17;10.83;;;8.70;99.90;;;;;;5067671;28;20694;-80
2022/03/27 00:59:07;;;;;;;13.73;10.50;;;8.70;99.90;;;;;;5059344;28;20218;-80
2022/03/27 01:01:38;;;;;;;16.43;10.57;;;8.60;99.90;;;;;;5055733;28;20207;-80
2022/03/27 01:04:05;;;;;;;18.20;12.50;;;8.60;99.90;;;;;;5059981;28;20215;-80
2022/03/27 01:06:33;;;;;;;22.20;13.87;;;8.60;99.90;;;;;;5065074;28;20664;-82
2022/03/27 01:11:44;;;;;;;21.07;13.67;;;8.50;99.90;;;;;;5055354;28;20227;-79
2022/03/27 01:14:10;;;;;;;23.57;14.80;;;8.50;99.90;;;;;;5070152;28;20199;-80
2022/03/27 01:16:41;;;;;;;20.07;13.17;;;8.50;99.90;;;;;;5058992;28;20303;-80
2022/03/27 01:19:12;;;;;;;21.57;14.30;;;8.50;99.90;;;;;;5067150;28;20215;-78
2022/03/27 01:21:40;;;;;;;22.57;14.23;;;8.50;99.90;;;;;;5057415;28;20583;-80
2022/03/27 01:24:07;;;;;;;27.90;15.83;;;8.50;99.90;;;;;;5069438;28;20676;-81
2022/03/27 01:26:33;;;;;;;25.60;15.53;;;8.50;99.90;;;;;;5056328;28;20234;-81
2022/03/27 01:28:59;;;;;;;25.33;15.67;;;8.50;99.90;;;;;;5065073;28;20230;-80
2022/03/27 01:31:24;;;;;;;24.70;14.30;;;8.50;99.90;;;;;;5066321;28;20281;-81
2022/03/27 01:33:50;;;;;;;22.70;14.50;;;8.50;99.90;;;;;;5071328;28;20228;-80
2022/03/27 01:36:23;;;;;;;21.30;14.27;;;8.40;99.90;;;;;;5063013;28;20686;-80
2022/03/27 01:38:53;;;;;;;23.30;15.53;;;8.40;99.90;;;;;;5062499;28;20200;-81
2022/03/27 01:41:19;;;;;;;24.17;15.30;;;8.30;99.90;;;;;;5053143;28;20219;-79
2022/03/27 01:43:45;;;;;;;25.90;15.23;;;8.40;99.90;;;;;;5066022;28;20570;-79
2022/03/27 01:46:11;;;;;;;20.20;14.17;;;8.40;99.90;;;;;;5076844;28;20202;-80
2022/03/27 01:48:36;;;;;;;21.17;14.17;;;8.40;99.90;;;;;;5067959;28;20179;-80
2022/03/27 01:51:02;;;;;;;29.33;16.77;;;8.30;99.90;;;;;;5079124;28;20628;-81
2022/03/27 01:53:27;;;;;;;24.47;16.07;;;8.30;99.90;;;;;;5077311;28;20214;-80
2022/03/27 01:55:53;;;;;;;24.63;15.10;;;8.30;99.90;;;;;;5058607;28;20200;-80
2022/03/27 01:58:19;;;;;;;21.43;14.60;;;8.30;99.90;;;;;;5056415;28;20254;-80
2022/03/27 02:00:44;;;;;;;21.33;14.90;;;8.20;99.90;;;;;;5065197;28;20222;-81
2022/03/27 02:03:10;;;;;;;21.47;14.87;;;8.20;99.90;;;;;;5072875;28;20175;-79
2022/03/27 02:05:36;;;;;;;23.17;14.87;;;8.20;99.90;;;;;;5062357;28;20208;-79
2022/03/27 02:08:02;;;;;;;26.20;15.10;;;8.20;99.90;;;;;;5065045;28;20219;-80
2022/03/27 02:10:27;;;;;;;21.03;13.70;;;8.20;99.90;;;;;;5068946;28;20238;-79
2022/03/27 02:12:53;;;;;;;22.53;14.97;;;8.20;99.90;;;;;;5056843;23;20235;-78
2022/03/27 02:15:19;;;;;;;21.87;14.30;;;8.10;99.90;;;;;;5034323;28;20189;-79
2022/03/27 02:17:45;;;;;;;20.70;13.90;;;8.10;99.90;;;;;;5034293;28;20210;-79
2022/03/27 02:20:11;;;;;;;20.73;15.10;;;8.00;99.90;;;;;;5035695;28;20223;-79
2022/03/27 02:22:37;;;;;;;20.40;14.90;;;8.10;99.90;;;;;;5034112;28;20212;-79
2022/03/27 02:25:04;;;;;;;25.03;15.90;;;8.10;99.90;;;;;;5034710;28;20223;-79
2022/03/27 02:27:30;;;;;;;20.77;14.67;;;8.10;99.90;;;;;;5030861;28;20592;-78
2022/03/27 02:29:55;;;;;;;19.40;13.97;;;8.10;99.90;;;;;;5033570;28;20259;-79
2022/03/27 02:32:21;;;;;;;23.90;15.03;;;8.10;99.90;;;;;;5034834;28;20213;-80
2022/03/27 02:34:46;;;;;;;22.43;14.77;;;8.10;99.90;;;;;;5042269;28;20728;-79
2022/03/27 02:37:13;;;;;;;22.33;15.90;;;7.90;99.90;;;;;;5042113;28;20215;-78
2022/03/27 02:39:39;;;;;;;20.37;14.03;;;7.90;99.90;;;;;;5035090;28;20180;-79
2022/03/27 02:42:05;;;;;;;19.27;13.73;;;8.00;99.90;;;;;;5043620;28;20754;-79
2022/03/27 02:44:30;;;;;;;21.60;13.73;;;8.00;99.90;;;;;;5034195;28;20291;-78
2022/03/27 02:46:56;;;;;;;23.00;14.27;;;7.90;99.90;;;;;;5034834;28;20200;-79
2022/03/27 02:49:22;;;;;;;21.43;14.17;;;8.00;99.90;;;;;;5041586;28;20216;-78
2022/03/27 02:51:47;;;;;;;17.43;13.13;;;8.00;99.90;;;;;;5034569;28;20286;-79
2022/03/27 02:54:13;;;;;;;18.40;13.53;;;7.90;99.90;;;;;;5035835;28;20326;-79
2022/03/27 02:56:39;;;;;;;18.87;13.53;;;7.90;99.90;;;;;;5034607;28;20220;-79
2022/03/27 02:59:05;;;;;;;19.07;13.43;;;7.80;99.90;;;;;;5033948;28;20215;-79
2022/03/27 03:01:32;;;;;;;19.30;13.60;;;7.90;99.90;;;;;;5039531;28;20220;-79
2022/03/27 03:03:58;;;;;;;17.40;13.10;;;7.80;99.90;;;;;;5035842;28;20208;-78
2022/03/27 03:06:24;;;;;;;17.90;12.40;;;7.80;99.90;;;;;;5037577;28;20340;-81
2022/03/27 03:08:50;;;;;;;17.10;12.80;;;7.80;99.90;;;;;;5036629;28;20697;-79
2022/03/27 03:11:16;;;;;;;18.70;12.90;;;7.70;99.90;;;;;;5035489;28;20208;-79
2022/03/27 03:13:44;;;;;;;20.83;13.33;;;7.70;99.90;;;;;;5034766;28;20205;-80
2022/03/27 03:16:10;;;;;;;19.07;12.63;;;7.60;99.90;;;;;;5034559;28;20801;-78
2022/03/27 03:18:36;;;;;;;17.00;12.57;;;7.60;99.90;;;;;;5032189;28;20615;-77
2022/03/27 03:21:02;;;;;;;18.03;13.07;;;7.60;99.90;;;;;;5031225;28;20177;-78
2022/03/27 03:23:28;;;;;;;16.43;12.20;;;7.50;99.90;;;;;;5031787;28;20338;-78
2022/03/27 03:25:55;;;;;;;18.63;12.87;;;7.50;99.90;;;;;;5030638;28;20287;-78
2022/03/27 03:28:20;;;;;;;16.17;11.90;;;7.50;99.90;;;;;;5031098;28;20223;-78
2022/03/27 03:30:46;;;;;;;17.77;11.77;;;7.40;99.90;;;;;;5023821;28;20197;-78
2022/03/27 03:33:12;;;;;;;18.03;13.60;;;7.30;99.90;;;;;;5032143;28;20200;-78
2022/03/27 03:35:39;;;;;;;18.87;13.17;;;7.20;99.90;;;;;;5030319;28;20211;-79
2022/03/27 03:38:05;;;;;;;17.07;12.90;;;7.30;99.90;;;;;;5031024;28;20684;-79
2022/03/27 03:40:31;;;;;;;17.70;12.80;;;7.30;99.90;;;;;;5040398;28;20205;-78
2022/03/27 03:42:57;;;;;;;17.50;12.37;;;7.30;99.90;;;;;;5031599;28;20223;-78
2022/03/27 03:45:22;;;;;;;17.53;12.13;;;7.40;99.90;;;;;;5033708;28;20180;-78
2022/03/27 03:47:48;;;;;;;18.70;13.03;;;7.30;99.90;;;;;;5030226;28;20656;-78
2022/03/27 03:50:13;;;;;;;18.57;13.30;;;7.30;99.90;;;;;;5034018;28;20208;-78
2022/03/27 03:52:39;;;;;;;20.80;13.00;;;7.30;99.90;;;;;;5031209;28;20208;-78
2022/03/27 03:55:05;;;;;;;16.50;12.67;;;7.30;99.90;;;;;;5035922;28;20208;-79
2022/03/27 03:57:30;;;;;;;22.13;13.30;;;7.20;99.90;;;;;;5029847;28;20672;-79
2022/03/27 03:59:56;;;;;;;17.50;12.53;;;7.20;99.90;;;;;;5031331;28;20200;-79
2022/03/27 04:02:21;;;;;;;17.93;12.60;;;7.20;99.90;;;;;;5031442;28;20212;-78
2022/03/27 04:04:47;;;;;;;18.57;13.10;;;7.10;99.90;;;;;;5031933;28;20629;-79
2022/03/27 04:07:12;;;;;;;19.23;13.13;;;7.10;99.90;;;;;;5029850;28;20208;-78
2022/03/27 04:09:38;;;;;;;20.13;13.37;;;7.20;99.90;;;;;;5028931;28;20180;-78
2022/03/27 04:12:05;;;;;;;21.40;13.57;;;7.20;99.90;;;;;;5030030;28;20204;-80
2022/03/27 04:14:34;;;;;;;20.83;13.57;;;7.20;99.90;;;;;;5030734;28;20675;-79
2022/03/27 04:17:00;;;;;;;20.03;13.80;;;7.20;99.90;;;;;;5031067;28;20201;-78
2022/03/27 04:19:25;;;;;;;19.83;14.13;;;7.10;99.90;;;;;;5030464;28;20212;-78
2022/03/27 04:21:51;;;;;;;21.23;13.20;;;7.20;99.90;;;;;;5029847;28;20219;-78
2022/03/27 04:24:17;;;;;;;16.77;12.70;;;7.20;99.90;;;;;;5031534;28;20490;-79
2022/03/27 04:26:42;;;;;;;20.60;13.93;;;7.10;99.90;;;;;;5030902;28;20216;-78
2022/03/27 04:29:10;;;;;;;18.17;13.20;;;7.20;99.90;;;;;;5027383;28;20204;-78
2022/03/27 04:31:36;;;;;;;18.00;12.80;;;7.20;99.90;;;;;;5029224;28;20227;-79
2022/03/27 04:34:01;;;;;;;19.87;13.10;;;7.20;99.90;;;;;;5029596;28;20212;-78
2022/03/27 04:36:27;;;;;;;17.33;12.27;;;7.20;99.90;;;;;;5030742;28;20522;-78
2022/03/27 04:38:52;;;;;;;18.90;13.00;;;7.10;99.90;;;;;;5029482;28;20187;-78
2022/03/27 04:41:18;;;;;;;16.47;12.43;;;7.10;99.90;;;;;;5029492;28;20235;-77
2022/03/27 04:43:47;;;;;;;19.30;13.23;;;7.10;99.90;;;;;;5029165;28;20200;-79
2022/03/27 04:46:13;;;;;;;20.40;13.67;;;7.10;99.90;;;;;;5024961;28;20207;-78
2022/03/27 04:48:38;;;;;;;19.03;13.80;;;7.10;99.90;;;;;;5030164;28;20195;-78
2022/03/27 04:51:04;;;;;;;21.37;13.47;;;7.20;99.90;;;;;;5031234;28;20200;-79
2022/03/27 04:53:29;;;;;;;17.83;13.23;;;7.20;99.90;;;;;;5046275;28;20224;-79
2022/03/27 04:55:55;;;;;;;21.43;12.83;;;7.20;99.90;;;;;;5029610;28;20585;-80
2022/03/27 04:58:20;;;;;;;18.00;13.40;;;7.20;99.90;;;;;;5028706;28;20299;-78
2022/03/27 05:00:46;;;;;;;17.57;12.67;;;7.30;99.90;;;;;;5022696;28;20187;-78
2022/03/27 05:03:11;;;;;;;20.27;12.23;;;7.30;99.90;;;;;;5029814;28;20203;-78
2022/03/27 05:05:38;;;;;;;20.83;14.00;;;7.30;99.90;;;;;;5030549;28;20592;-78
2022/03/27 05:08:04;;;;;;;17.10;13.20;;;7.40;99.90;;;;;;5029695;28;20208;-79
2022/03/27 05:10:29;;;;;;;16.37;12.43;;;7.40;99.90;;;;;;5031295;28;20278;-80
2022/03/27 05:12:56;;;;;;;23.23;13.77;;;7.40;99.90;;;;;;5032150;28;20295;-79
2022/03/27 05:15:22;;;;;;;17.70;12.50;;;7.50;99.90;;;;;;5033228;28;20203;-78
2022/03/27 05:17:54;;;;;;;21.50;13.53;;;7.70;99.90;;;;;;5048183;28;20232;-78
2022/03/27 05:20:21;;;;;;;22.17;12.80;;;7.80;99.90;;;;;;5034516;28;20227;-78
2022/03/27 05:22:47;;;;;;;16.83;12.80;;;7.90;99.90;;;;;;5040435;28;20204;-79
2022/03/27 05:25:15;;;;;;;16.70;12.00;;;7.90;99.90;;;;;;5037434;28;20221;-79
2022/03/27 05:27:48;;;;;;;19.60;13.27;;;8.10;99.90;;;;;;5053468;28;20326;-78
2022/03/27 05:30:22;;;;;;;16.83;12.10;;;8.20;99.90;;;;;;5053232;28;20176;-79
2022/03/27 05:32:49;;;;;;;20.33;13.17;;;8.40;99.90;;;;;;5037994;28;20286;-79
2022/03/27 05:35:15;;;;;;;18.60;12.70;;;8.30;99.90;;;;;;5038054;28;20590;-78
2022/03/27 05:37:42;;;;;;;18.57;12.90;;;8.40;99.90;;;;;;5037519;28;20287;-78
2022/03/27 05:40:10;;;;;;;20.30;13.90;;;8.50;99.90;;;;;;5037461;28;20208;-81
2022/03/27 05:42:36;;;;;;;18.77;13.23;;;8.70;99.90;;;;;;5052828;28;20196;-80
2022/03/27 05:45:04;;;;;;;19.67;13.73;;;8.90;99.90;;;;;;5043898;28;20175;-79
2022/03/27 05:47:29;;;;;;;18.93;13.83;;;9.40;99.90;;;;;;5037051;28;20200;-79
2022/03/27 05:49:56;;;;;;;18.37;12.17;;;11.10;99.90;;;;;;5054445;28;20235;-79
2022/03/27 05:52:22;;;;;;;16.40;11.90;;;12.10;99.90;;;;;;5055772;28;20247;-79
2022/03/27 05:54:48;;;;;;;17.70;11.87;;;13.30;99.90;;;;;;5040374;28;20559;-79
2022/03/27 05:57:14;;;;;;;14.30;11.43;;;14.00;99.90;;;;;;5040404;28;20181;-79
2022/03/27 05:59:40;;;;;;;15.35;11.07;;;14.80;99.90;;;;;;5039310;28;20205;-80
2022/03/27 06:02:05;;;;;;;14.27;11.85;;;15.50;99.90;;;;;;5035873;28;20228;-78
2022/03/27 06:04:31;;;;;;;14.18;10.82;;;16.30;99.90;;;;;;5033430;28;20219;-78
2022/03/27 06:06:56;;;;;;;13.88;11.95;;;16.90;99.90;;;;;;5035200;28;20266;-78
2022/03/27 06:09:22;;;;;;;13.07;11.20;;;17.00;99.90;;;;;;5033578;28;20251;-79
2022/03/27 06:11:49;;;;;;;16.83;12.15;;;17.60;99.90;;;;;;5034530;28;20243;-79
2022/03/27 06:14:14;;;;;;;13.02;10.90;;;18.40;99.90;;;;;;5050378;28;20200;-79
2022/03/27 06:16:40;;;;;;;15.40;11.63;;;19.20;99.90;;;;;;5036636;28;20290;-79
2022/03/27 06:19:05;;;;;;;28.30;21.13;;;19.30;99.90;;;;;;5051895;28;20272;-79
2022/03/27 06:21:31;;;;;;;19.85;14.02;;;19.50;99.90;;;;;;5041905;28;20212;-80
2022/03/27 06:23:56;;;;;;;13.80;12.25;;;19.60;99.90;;;;;;5057527;28;20172;-79
2022/03/27 06:26:22;;;;;;;13.93;12.18;;;19.90;99.90;;;;;;5042060;28;20698;-80
2022/03/27 06:28:47;;;;;;;14.07;12.68;;;20.10;99.90;;;;;;5042244;28;20208;-80
2022/03/27 06:31:13;;;;;;;14.27;12.85;;;19.70;99.90;;;;;;5056445;28;20227;-80
2022/03/27 06:33:39;;;;;;;13.15;11.80;;;20.20;99.90;;;;;;5040708;28;20622;-80
2022/03/27 06:36:05;;;;;;;13.50;12.10;;;20.40;99.90;;;;;;5056918;28;20208;-80
2022/03/27 06:38:30;;;;;;;13.77;12.32;;;21.20;99.90;;;;;;5041111;28;20212;-81
2022/03/27 06:40:56;;;;;;;13.27;11.38;;;21.90;99.90;;;;;;5041684;28;20204;-80
2022/03/27 06:43:22;;;;;;;13.10;11.88;;;21.90;99.90;;;;;;5041197;28;20204;-80
2022/03/27 06:45:49;;;;;;;13.70;12.32;;;21.80;99.90;;;;;;5041949;28;20578;-81
2022/03/27 06:48:14;;;;;;;13.05;11.75;;;21.50;99.90;;;;;;5041072;28;20180;-80
2022/03/27 06:50:40;;;;;;;14.10;12.18;;;21.80;99.90;;;;;;5063089;28;20232;-81
2022/03/27 06:53:05;;;;;;;13.48;11.88;;;21.60;99.90;;;;;;5043439;28;20243;-80
2022/03/27 06:55:32;;;;;;;14.05;11.63;;;22.30;99.90;;;;;;5041406;28;20334;-80
2022/03/27 06:57:57;;;;;;;12.93;11.57;;;22.00;99.90;;;;;;5038885;28;20271;-81
2022/03/27 07:03:09;;;;;;;12.80;11.05;;;21.40;99.90;;;;;;5041656;28;20268;-80
2022/03/27 07:05:43;;;;;;;15.23;13.57;;;21.40;99.90;;;;;;5053689;28;20215;-80
2022/03/27 07:08:10;;;;;;;15.02;12.50;;;21.80;99.90;;;;;;5050000;28;20200;-80
2022/03/27 07:10:37;;;;;;;13.73;11.95;;;21.40;99.90;;;;;;5039851;28;20223;-81
2022/03/27 07:13:04;;;;;;;13.43;12.05;;;22.10;99.90;;;;;;5040677;28;20219;-80
2022/03/27 07:15:30;;;;;;;12.75;10.10;;;22.10;99.90;;;;;;5039911;28;20181;-80
2022/03/27 07:17:55;;;;;;;11.63;10.43;;;22.50;99.90;;;;;;5040769;28;20173;-80
2022/03/27 07:20:28;;;;;;;12.68;10.50;;;22.80;99.90;;;;;;5038170;28;20212;-80
2022/03/27 07:22:57;;;;;;;11.45;10.27;;;23.10;99.90;;;;;;5039056;28;20211;-80
2022/03/27 07:25:24;;;;;;;10.98;9.85;;;22.90;99.90;;;;;;5039526;28;20300;-80
2022/03/27 07:27:50;;;;;;;10.40;9.40;;;23.10;99.90;;;;;;5038889;28;20200;-80
2022/03/27 07:30:16;;;;;;;11.98;10.05;;;22.90;99.90;;;;;;5037595;28;20181;-80
2022/03/27 07:32:42;;;;;;;11.02;9.68;;;23.00;99.90;;;;;;5038273;28;20346;-80
2022/03/27 07:35:09;;;;;;;11.35;9.77;;;22.70;99.90;;;;;;5036856;28;20270;-80
2022/03/27 07:37:35;;;;;;;11.35;9.63;;;22.80;99.90;;;;;;5037593;28;20219;-80
2022/03/27 07:40:03;;;;;;;11.13;10.05;;;22.50;99.90;;;;;;5038114;28;20267;-80
2022/03/27 07:42:30;;;;;;;10.57;9.50;;;22.60;99.90;;;;;;5055011;28;20216;-80
2022/03/27 07:44:56;;;;;;;14.63;11.75;;;22.70;99.90;;;;;;5040433;28;20561;-80
2022/03/27 07:47:22;;;;;;;12.40;11.10;;;22.80;99.90;;;;;;5037778;28;20207;-80
2022/03/27 07:49:47;;;;;;;9.75;8.82;;;22.80;99.90;;;;;;5039250;28;20204;-80
2022/03/27 07:52:12;;;;;;;11.10;10.00;;;22.50;99.90;;;;;;5037679;28;20216;-80
2022/03/27 07:54:38;;;;;;;11.68;10.57;;;22.50;99.90;;;;;;5039328;28;20184;-81
2022/03/27 07:57:04;;;;;;;10.52;9.43;;;23.00;99.90;;;;;;5037202;28;20228;-81
2022/03/27 07:59:29;;;;;;;12.30;11.10;;;23.80;99.90;;;;;;5037285;28;20287;-80
2022/03/27 08:01:55;;;;;;;13.18;11.75;;;23.80;99.90;;;;;;5037502;28;20291;-80
2022/03/27 08:04:21;;;;;;;12.85;11.55;;;23.50;99.90;;;;;;5036798;28;20208;-82
2022/03/27 08:06:47;;;;;;;10.70;9.70;;;23.20;99.90;;;;;;5036855;28;20194;-81
2022/03/27 08:09:12;;;;;;;13.52;12.15;;;23.20;99.90;;;;;;5035553;28;20208;-80
2022/03/27 08:11:41;;;;;;;10.65;9.15;;;23.20;99.90;;;;;;5035809;28;20243;-80
2022/03/27 08:14:08;;;;;;;10.23;9.07;;;23.30;99.90;;;;;;5036064;28;20211;-80
2022/03/27 08:16:34;;;;;;;12.70;10.40;;;23.20;99.90;;;;;;5037348;28;20211;-80
2022/03/27 08:18:59;;;;;;;15.35;12.88;;;23.50;99.90;;;;;;5036759;28;20274;-80
2022/03/27 08:21:26;;;;;;;10.70;9.60;;;23.60;99.90;;;;;;5035782;28;20204;-80
2022/03/27 08:23:51;;;;;;;12.07;10.77;;;23.00;99.90;;;;;;5038042;28;20227;-81
2022/03/27 08:29:03;;;;;;;10.73;9.63;;;22.30;99.90;;;;;;5036942;28;20257;-80
2022/03/27 08:31:29;;;;;;;10.57;9.57;;;23.20;99.90;;;;;;5053178;28;20232;-80
2022/03/27 08:33:55;;;;;;;12.77;10.40;;;23.20;99.90;;;;;;5036961;28;20212;-80
2022/03/27 08:36:21;;;;;;;11.73;10.48;;;23.40;99.90;;;;;;5040744;28;20248;-81
2022/03/27 08:38:46;;;;;;;10.73;9.65;;;23.30;99.90;;;;;;5043457;28;20291;-81
2022/03/27 08:41:15;;;;;;;11.85;10.00;;;23.30;99.90;;;;;;5045076;28;20272;-80
2022/03/27 08:43:43;;;;;;;11.32;10.13;;;22.80;99.90;;;;;;5043252;28;20641;-80
2022/03/27 08:46:09;;;;;;;11.57;10.35;;;23.10;99.90;;;;;;5043149;28;20837;-79
2022/03/27 08:48:37;;;;;;;11.23;9.70;;;23.00;99.90;;;;;;5042138;28;20179;-79
2022/03/27 08:51:05;;;;;;;10.77;9.63;;;22.20;99.90;;;;;;5043529;28;20192;-80
2022/03/27 08:53:51;;;;;;;13.27;10.77;;;22.30;99.90;;;;;;5043866;28;20204;-78
2022/03/27 08:56:18;;;;;;;13.18;10.50;;;22.40;99.90;;;;;;5045080;28;20251;-79
2022/03/27 08:58:44;;;;;;;11.90;10.30;;;22.00;99.90;;;;;;5061084;28;20199;-79
2022/03/27 09:01:11;;;;;;;11.68;10.30;;;21.90;99.90;;;;;;5045626;28;20212;-79
2022/03/27 09:03:37;;;;;;;13.45;10.90;;;22.30;99.90;;;;;;5051649;28;20173;-79
2022/03/27 09:06:05;;;;;;;12.30;10.70;;;21.50;99.90;;;;;;5052876;28;20194;-80
2022/03/27 09:08:30;;;;;;;11.68;10.32;;;21.50;99.90;;;;;;5050722;28;20208;-81
2022/03/27 09:10:56;;;;;;;14.63;12.27;;;21.80;99.90;;;;;;5063507;28;20234;-79
2022/03/27 09:13:23;;;;;;;14.25;12.07;;;21.30;99.90;;;;;;5046764;28;20207;-79
2022/03/27 09:16:04;;;;;;;12.07;10.80;;;20.20;99.90;;;;;;5046788;28;20745;-79
2022/03/27 09:18:58;;;;;;;15.38;12.35;;;20.30;99.90;;;;;;5044925;28;20282;-79
2022/03/27 09:21:25;;;;;;;14.15;11.55;;;20.00;99.90;;;;;;5049896;28;20741;-79
2022/03/27 09:23:52;;;;;;;12.40;10.88;;;19.80;99.90;;;;;;5051394;28;20200;-79
2022/03/27 09:26:18;;;;;;;14.82;11.55;;;19.30;99.90;;;;;;5052132;28;20203;-79
2022/03/27 09:28:46;;;;;;;13.98;11.10;;;18.90;99.90;;;;;;5050589;28;20193;-79
2022/03/27 09:31:18;;;;;;;13.23;10.88;;;18.60;99.90;;;;;;5050349;28;20776;-80
2022/03/27 09:33:54;;;;;;;12.38;10.52;;;18.80;99.90;;;;;;5051560;28;20178;-80
2022/03/27 09:36:22;;;;;;;12.25;10.55;;;19.10;99.90;;;;;;5052672;28;20242;-79
2022/03/27 09:39:02;;;;;;;15.57;13.82;;;19.50;99.90;;;;;;5043053;28;20208;-78
2022/03/27 09:41:40;;;;;;;19.17;15.68;;;19.50;99.90;;;;;;5048058;28;20203;-79
2022/03/27 09:44:11;;;;;;;14.70;11.88;;;19.50;99.90;;;;;;5046587;28;20366;-79
2022/03/27 09:47:01;;;;;;;15.38;10.77;;;19.50;99.90;;;;;;5044863;28;20208;-79
2022/03/27 09:49:37;;;;;;;13.43;10.30;;;19.50;99.90;;;;;;5043279;28;20197;-79
2022/03/27 09:52:11;;;;;;;12.48;9.80;;;19.80;99.90;;;;;;5040489;28;20214;-79
2022/03/27 09:54:58;;;;;;;13.85;10.90;;;19.70;99.90;;;;;;5039335;28;20184;-80
2022/03/27 09:57:28;;;;;;;14.30;10.38;;;19.50;99.90;;;;;;5039024;28;20607;-80
2022/03/27 09:59:55;;;;;;;11.80;9.18;;;19.60;99.90;;;;;;5037186;28;20674;-79
2022/03/27 10:02:26;;;;;;;9.85;8.38;;;19.80;99.90;;;;;;5035122;28;20282;-79
2022/03/27 10:04:56;;;;;;;11.07;7.45;;;19.60;99.90;;;;;;5038935;28;20188;-80
2022/03/27 10:07:25;;;;;;;9.52;7.13;;;18.80;99.90;;;;;;5040696;28;20731;-80
2022/03/27 10:09:55;;;;;;;11.52;7.22;;;18.40;99.90;;;;;;5040323;28;20212;-78
2022/03/27 10:12:29;;;;;;;8.07;6.97;;;18.30;99.90;;;;;;5045125;28;20339;-81
2022/03/27 10:14:59;;;;;;;11.00;6.57;;;18.00;99.90;;;;;;5039766;28;20215;-79
2022/03/27 10:17:27;;;;;;;6.90;5.97;;;18.50;99.90;;;;;;5040805;28;20204;-80
2022/03/27 10:19:56;;;;;;;8.77;6.50;;;19.20;99.90;;;;;;5040218;28;20212;-80
2022/03/27 10:22:24;;;;;;;12.32;8.73;;;19.30;99.90;;;;;;5042817;28;20262;-80
2022/03/27 10:24:53;;;;;;;11.38;8.20;;;19.00;99.90;;;;;;5040176;28;20295;-79
2022/03/27 10:27:19;;;;;;;10.70;8.02;;;18.60;99.90;;;;;;5056213;28;20180;-79
2022/03/27 10:29:47;;;;;;;12.02;8.90;;;18.30;99.90;;;;;;5054128;28;20630;-79
2022/03/27 10:32:13;;;;;;;9.50;8.50;;;17.90;99.90;;;;;;5054621;28;20217;-80
2022/03/27 10:35:19;;;;;;;11.65;8.57;;;18.00;99.90;;;;;;5041022;28;20615;-80
2022/03/27 10:38:10;;;;;;;9.27;7.30;;;18.30;99.90;;;;;;5039301;28;20208;-79
2022/03/27 10:40:49;;;;;;;9.70;7.93;;;18.60;99.90;;;;;;5033806;28;20215;-79
2022/03/27 10:43:23;;;;;;;7.68;6.82;;;18.50;99.90;;;;;;5032612;28;20219;-79
2022/03/27 10:46:18;;;;;;;10.68;8.02;;;18.60;99.90;;;;;;5033355;28;20207;-78
2022/03/27 10:48:45;;;;;;;12.93;8.60;;;18.10;99.90;;;;;;5034396;28;20168;-79
2022/03/27 10:51:32;;;;;;;9.27;7.78;;;18.60;99.90;;;;;;5035309;28;20700;-79
2022/03/27 10:54:07;;;;;;;10.57;7.55;;;18.80;99.90;;;;;;5032854;28;20197;-78
2022/03/27 10:56:45;;;;;;;12.63;9.57;;;18.70;99.90;;;;;;5034510;28;20208;-78
2022/03/27 10:59:14;;;;;;;7.65;6.82;;;18.60;99.90;;;;;;5034392;28;20544;-79
2022/03/27 11:01:54;;;;;;;11.93;7.68;;;18.40;99.90;;;;;;5034652;28;20247;-78
2022/03/27 11:04:25;;;;;;;11.25;7.68;;;18.70;99.90;;;;;;5035109;28;20223;-79
2022/03/27 11:06:52;;;;;;;8.85;7.00;;;18.70;99.90;;;;;;5033490;28;20212;-79
2022/03/27 11:09:35;;;;;;;8.48;6.10;;;18.90;99.90;;;;;;5035031;28;20172;-79
2022/03/27 11:12:06;;;;;;;6.95;5.82;;;19.00;99.90;;;;;;5036352;28;20247;-80
2022/03/27 11:14:50;;;;;;;12.15;6.65;;;19.10;99.90;;;;;;5046905;28;20239;-79
2022/03/27 11:17:16;;;;;;;8.38;6.25;;;19.30;99.90;;;;;;5034475;28;20282;-79
2022/03/27 11:19:43;;;;;;;9.35;5.75;;;19.20;99.90;;;;;;5035931;28;20200;-79
2022/03/27 11:22:41;;;;;;;9.75;6.57;;;19.40;99.90;;;;;;5037117;28;20290;-79
2022/03/27 11:25:28;;;;;;;8.93;6.15;;;19.60;99.90;;;;;;5037025;28;20212;-79
2022/03/27 11:28:07;;;;;;;7.60;5.65;;;19.30;99.90;;;;;;5036251;28;20234;-80
2022/03/27 11:30:35;;;;;;;9.05;5.00;;;19.30;99.90;;;;;;5037521;28;20668;-79
2022/03/27 11:33:14;;;;;;;7.00;4.63;;;19.40;99.90;;;;;;5036291;28;20192;-79
2022/03/27 11:35:41;;;;;;;7.22;4.30;;;19.00;99.90;;;;;;5036195;28;20212;-79
2022/03/27 11:38:21;;;;;;;6.22;4.93;;;19.00;99.90;;;;;;5035324;28;20207;-79
2022/03/27 11:40:47;;;;;;;5.60;4.20;;;19.10;99.90;;;;;;5036225;28;20219;-79
2022/03/27 11:43:29;;;;;;;5.65;4.65;;;19.20;99.90;;;;;;5036491;28;20217;-79
2022/03/27 11:45:57;;;;;;;7.10;4.70;;;18.60;99.90;;;;;;5035811;28;20208;-79
2022/03/27 11:48:22;;;;;;;6.07;4.13;;;18.60;99.90;;;;;;5035655;28;20180;-79
2022/03/27 11:50:49;;;;;;;9.80;5.70;;;18.70;99.90;;;;;;5039593;28;20720;-79
2022/03/27 11:53:16;;;;;;;5.60;4.10;;;18.60;99.90;;;;;;5037525;28;20243;-79
2022/03/27 11:55:41;;;;;;;6.22;4.45;;;18.70;99.90;;;;;;5037235;28;20686;-80
2022/03/27 11:58:08;;;;;;;5.28;3.55;;;18.40;99.90;;;;;;5036147;28;20231;-80
2022/03/27 12:00:46;;;;;;;6.35;3.80;;;18.20;99.90;;;;;;5052850;28;20263;-79
2022/03/27 12:03:15;;;;;;;7.93;5.80;;;18.00;99.90;;;;;;5035767;28;20200;-80
2022/03/27 12:05:41;;;;;;;7.40;4.68;;;17.70;99.90;;;;;;5040353;28;20216;-79
2022/03/27 12:08:07;;;;;;;4.80;3.90;;;18.00;99.90;;;;;;5044129;28;20713;-79
2022/03/27 12:10:56;;;;;;;7.88;4.50;;;18.20;99.90;;;;;;5041457;28;20208;-79
2022/03/27 12:13:22;;;;;;;6.05;3.35;;;18.30;99.90;;;;;;5036713;28;20634;-79
2022/03/27 12:15:50;;;;;;;8.88;4.75;;;18.60;99.90;;;;;;5036634;28;20230;-79
2022/03/27 12:18:29;;;;;;;5.95;4.40;;;18.50;99.90;;;;;;5035408;28;20185;-80
2022/03/27 12:20:56;;;;;;;6.35;4.32;;;18.50;99.90;;;;;;5037903;28;20200;-79
2022/03/27 12:23:21;;;;;;;5.90;4.00;;;18.70;99.90;;;;;;5041662;28;20223;-80
2022/03/27 12:29:39;;;;;;;11.27;6.80;;;18.70;99.90;;;;;;5046498;28;20879;-80
2022/03/27 12:31:36;;;;;;;4.88;4.10;;;18.70;99.90;;;;;;5037999;28;20286;-79
2022/03/27 12:34:02;;;;;;;7.65;3.88;;;18.20;99.90;;;;;;5037164;28;20212;-79
2022/03/27 12:36:27;;;;;;;7.38;3.95;;;18.30;99.90;;;;;;5054073;28;20183;-79
2022/03/27 12:38:53;;;;;;;7.28;3.55;;;18.50;99.90;;;;;;5051553;28;20180;-79
2022/03/27 12:41:39;;;;;;;6.20;4.05;;;18.30;99.90;;;;;;5050309;28;20208;-79
2022/03/27 12:44:05;;;;;;;5.28;3.78;;;18.10;99.90;;;;;;5034400;28;20269;-79
2022/03/27 12:46:31;;;;;;;4.10;3.70;;;18.10;99.90;;;;;;5031431;28;20290;-79
2022/03/27 12:49:03;;;;;;;5.70;4.18;;;17.90;99.90;;;;;;5034348;28;20283;-80
2022/03/27 12:51:28;;;;;;;4.93;3.63;;;17.90;99.90;;;;;;5049360;28;20250;-79